sensor_id;sensor_type;location;lat;lon;timestamp;temperature;humidity
13344;DHT22;6741;48.964;9.406;2023-06-26T00:00:11;16.90;1.00
13344;DHT22;6741;48.964;9.406;2023-06-26T00:02:38;16.90;1.00
13344;DHT22;6741;48.964;9.406;2023-06-26T00:05:05;16.90;1.00
13344;DHT22;6741;48.964;9.406;2023-06-26T00:07:32;16.90;1.00
13344;DHT22;6741;48.964;9.406;2023-06-26T00:10:00;16.90;1.00
13344;DHT22;6741;48.964;9.406;2023-06-26T00:12:28;16.90;1.00
13344;DHT22;6741;48.964;9.406;2023-06-26T00:14:56;16.90;1.00
13344;DHT22;6741;48.964;9.406;2023-06-26T00:17:23;16.90;1.00
13344;DHT22;6741;48.964;9.406;2023-06-26T00:19:50;16.80;1.00
13344;DHT22;6741;48.964;9.406;2023-06-26T00:22:17;16.80;1.00
13344;DHT22;6741;48.964;9.406;2023-06-26T00:24:44;16.70;1.00
13344;DHT22;6741;48.964;9.406;2023-06-26T00:27:11;16.70;1.00
13344;DHT22;6741;48.964;9.406;2023-06-26T00:29:38;16.60;1.00
13344;DHT22;6741;48.964;9.406;2023-06-26T00:32:06;16.60;1.00
13344;DHT22;6741;48.964;9.406;2023-06-26T00:34:34;16.60;1.00
13344;DHT22;6741;48.964;9.406;2023-06-26T00:37:01;16.50;1.00
13344;DHT22;6741;48.964;9.406;2023-06-26T00:39:29;16.50;1.00
13344;DHT22;6741;48.964;9.406;2023-06-26T00:41:56;16.50;1.00
13344;DHT22;6741;48.964;9.406;2023-06-26T00:44:23;16.50;1.00
13344;DHT22;6741;48.964;9.406;2023-06-26T00:46:50;16.40;1.00
13344;DHT22;6741;48.964;9.406;2023-06-26T00:49:18;16.40;1.00
13344;DHT22;6741;48.964;9.406;2023-06-26T00:51:45;16.40;1.00
13344;DHT22;6741;48.964;9.406;2023-06-26T00:54:13;16.30;1.00
13344;DHT22;6741;48.964;9.406;2023-06-26T00:56:45;16.30;1.00
13344;DHT22;6741;48.964;9.406;2023-06-26T00:59:12;16.20;1.00
13344;DHT22;6741;48.964;9.406;2023-06-26T01:01:39;16.20;1.00
13344;DHT22;6741;48.964;9.406;2023-06-26T01:04:06;16.20;1.00
13344;DHT22;6741;48.964;9.406;2023-06-26T01:06:35;16.10;1.00
13344;DHT22;6741;48.964;9.406;2023-06-26T01:09:02;15.90;1.00
13344;DHT22;6741;48.964;9.406;2023-06-26T01:11:29;15.80;6.00
13344;DHT22;6741;48.964;9.406;2023-06-26T01:13:56;15.80;14.90
13344;DHT22;6741;48.964;9.406;2023-06-26T01:16:28;15.80;22.70
13344;DHT22;6741;48.964;9.406;2023-06-26T01:18:56;15.80;30.90
13344;DHT22;6741;48.964;9.406;2023-06-26T01:21:23;15.80;22.00
13344;DHT22;6741;48.964;9.406;2023-06-26T01:24:07;15.80;19.10
13344;DHT22;6741;48.964;9.406;2023-06-26T01:26:39;15.70;18.80
13344;DHT22;6741;48.964;9.406;2023-06-26T01:29:07;15.70;32.00
13344;DHT22;6741;48.964;9.406;2023-06-26T01:31:37;15.70;35.50
13344;DHT22;6741;48.964;9.406;2023-06-26T01:34:04;15.70;35.10
13344;DHT22;6741;48.964;9.406;2023-06-26T01:36:31;15.60;40.50
13344;DHT22;6741;48.964;9.406;2023-06-26T01:38:57;15.60;40.00
13344;DHT22;6741;48.964;9.406;2023-06-26T01:41:25;15.60;35.30
13344;DHT22;6741;48.964;9.406;2023-06-26T01:44:05;15.60;35.30
13344;DHT22;6741;48.964;9.406;2023-06-26T01:46:39;15.50;48.00
13344;DHT22;6741;48.964;9.406;2023-06-26T01:49:12;15.40;51.90
13344;DHT22;6741;48.964;9.406;2023-06-26T01:51:46;15.40;61.60
13344;DHT22;6741;48.964;9.406;2023-06-26T01:54:17;15.40;52.10
13344;DHT22;6741;48.964;9.406;2023-06-26T01:56:45;15.50;43.60
13344;DHT22;6741;48.964;9.406;2023-06-26T01:59:18;15.50;69.50
13344;DHT22;6741;48.964;9.406;2023-06-26T02:01:46;15.50;64.20
13344;DHT22;6741;48.964;9.406;2023-06-26T02:04:13;15.40;62.40
13344;DHT22;6741;48.964;9.406;2023-06-26T02:06:40;15.40;73.90
13344;DHT22;6741;48.964;9.406;2023-06-26T02:09:07;15.30;50.50
13344;DHT22;6741;48.964;9.406;2023-06-26T02:11:34;15.20;45.70
13344;DHT22;6741;48.964;9.406;2023-06-26T02:14:01;15.20;42.80
13344;DHT22;6741;48.964;9.406;2023-06-26T02:16:29;15.20;48.50
13344;DHT22;6741;48.964;9.406;2023-06-26T02:18:56;15.20;65.20
13344;DHT22;6741;48.964;9.406;2023-06-26T02:21:23;15.20;78.20
13344;DHT22;6741;48.964;9.406;2023-06-26T02:23:50;15.10;85.10
13344;DHT22;6741;48.964;9.406;2023-06-26T02:26:17;15.20;77.70
13344;DHT22;6741;48.964;9.406;2023-06-26T02:28:44;15.00;80.10
13344;DHT22;6741;48.964;9.406;2023-06-26T02:31:12;15.00;76.60
13344;DHT22;6741;48.964;9.406;2023-06-26T02:33:41;15.00;83.20
13344;DHT22;6741;48.964;9.406;2023-06-26T02:36:10;15.00;88.30
13344;DHT22;6741;48.964;9.406;2023-06-26T02:38:37;14.90;93.70
13344;DHT22;6741;48.964;9.406;2023-06-26T02:41:04;14.90;94.20
13344;DHT22;6741;48.964;9.406;2023-06-26T02:43:31;14.90;92.70
13344;DHT22;6741;48.964;9.406;2023-06-26T02:45:58;14.90;87.70
13344;DHT22;6741;48.964;9.406;2023-06-26T02:48:25;15.00;91.80
13344;DHT22;6741;48.964;9.406;2023-06-26T02:50:53;14.90;83.40
13344;DHT22;6741;48.964;9.406;2023-06-26T02:53:20;14.90;90.50
13344;DHT22;6741;48.964;9.406;2023-06-26T02:55:47;14.80;88.50
13344;DHT22;6741;48.964;9.406;2023-06-26T02:58:14;14.80;86.90
13344;DHT22;6741;48.964;9.406;2023-06-26T03:00:40;14.70;92.20
13344;DHT22;6741;48.964;9.406;2023-06-26T03:03:08;14.70;95.60
13344;DHT22;6741;48.964;9.406;2023-06-26T03:05:35;14.70;97.30
13344;DHT22;6741;48.964;9.406;2023-06-26T03:08:04;14.60;98.10
13344;DHT22;6741;48.964;9.406;2023-06-26T03:10:31;14.60;98.10
13344;DHT22;6741;48.964;9.406;2023-06-26T03:12:58;14.60;98.00
13344;DHT22;6741;48.964;9.406;2023-06-26T03:15:25;14.60;99.90
13344;DHT22;6741;48.964;9.406;2023-06-26T03:17:52;14.50;98.60
13344;DHT22;6741;48.964;9.406;2023-06-26T03:20:19;14.60;99.90
13344;DHT22;6741;48.964;9.406;2023-06-26T03:22:45;14.50;99.90
13344;DHT22;6741;48.964;9.406;2023-06-26T03:25:14;14.40;99.90
13344;DHT22;6741;48.964;9.406;2023-06-26T03:27:40;14.40;99.90
13344;DHT22;6741;48.964;9.406;2023-06-26T03:30:08;14.40;99.90
13344;DHT22;6741;48.964;9.406;2023-06-26T03:32:35;14.40;99.90
13344;DHT22;6741;48.964;9.406;2023-06-26T03:35:03;14.40;99.90
13344;DHT22;6741;48.964;9.406;2023-06-26T03:37:29;14.40;99.90
13344;DHT22;6741;48.964;9.406;2023-06-26T03:39:56;14.40;99.90
13344;DHT22;6741;48.964;9.406;2023-06-26T03:42:24;14.40;99.90
13344;DHT22;6741;48.964;9.406;2023-06-26T03:44:51;14.30;99.90
13344;DHT22;6741;48.964;9.406;2023-06-26T03:47:18;14.40;99.90
13344;DHT22;6741;48.964;9.406;2023-06-26T03:49:45;14.40;99.90
13344;DHT22;6741;48.964;9.406;2023-06-26T03:52:12;14.40;99.90
13344;DHT22;6741;48.964;9.406;2023-06-26T03:54:39;14.40;99.90
13344;DHT22;6741;48.964;9.406;2023-06-26T03:57:07;14.40;99.90
13344;DHT22;6741;48.964;9.406;2023-06-26T03:59:36;14.50;99.90
13344;DHT22;6741;48.964;9.406;2023-06-26T04:02:03;14.50;99.90
13344;DHT22;6741;48.964;9.406;2023-06-26T04:04:30;14.60;99.90
13344;DHT22;6741;48.964;9.406;2023-06-26T04:06:57;14.60;99.90
13344;DHT22;6741;48.964;9.406;2023-06-26T04:09:24;14.70;99.90
13344;DHT22;6741;48.964;9.406;2023-06-26T04:11:51;14.70;99.90
13344;DHT22;6741;48.964;9.406;2023-06-26T04:14:18;14.60;99.90
13344;DHT22;6741;48.964;9.406;2023-06-26T04:16:46;14.60;99.90
13344;DHT22;6741;48.964;9.406;2023-06-26T04:19:13;14.60;99.90
13344;DHT22;6741;48.964;9.406;2023-06-26T04:21:40;14.70;99.90
13344;DHT22;6741;48.964;9.406;2023-06-26T04:24:07;14.70;99.90
13344;DHT22;6741;48.964;9.406;2023-06-26T04:26:34;14.80;99.90
13344;DHT22;6741;48.964;9.406;2023-06-26T04:29:01;14.80;99.90
13344;DHT22;6741;48.964;9.406;2023-06-26T04:31:28;14.90;99.90
13344;DHT22;6741;48.964;9.406;2023-06-26T04:33:57;15.00;99.90
13344;DHT22;6741;48.964;9.406;2023-06-26T04:36:25;15.00;99.90
13344;DHT22;6741;48.964;9.406;2023-06-26T04:38:54;15.00;99.90
13344;DHT22;6741;48.964;9.406;2023-06-26T04:41:21;15.00;99.90
13344;DHT22;6741;48.964;9.406;2023-06-26T04:43:48;15.10;99.90
13344;DHT22;6741;48.964;9.406;2023-06-26T04:46:15;15.20;99.90
13344;DHT22;6741;48.964;9.406;2023-06-26T04:48:42;15.20;99.90
13344;DHT22;6741;48.964;9.406;2023-06-26T04:51:12;15.40;99.90
13344;DHT22;6741;48.964;9.406;2023-06-26T04:53:39;15.50;99.20
13344;DHT22;6741;48.964;9.406;2023-06-26T04:56:06;15.60;88.20
13344;DHT22;6741;48.964;9.406;2023-06-26T04:58:33;15.70;78.80
13344;DHT22;6741;48.964;9.406;2023-06-26T05:01:02;15.80;85.00
13344;DHT22;6741;48.964;9.406;2023-06-26T05:03:36;15.90;95.00
13344;DHT22;6741;48.964;9.406;2023-06-26T05:06:03;15.90;99.80
13344;DHT22;6741;48.964;9.406;2023-06-26T05:08:31;16.00;98.80
13344;DHT22;6741;48.964;9.406;2023-06-26T05:10:58;16.10;99.90
13344;DHT22;6741;48.964;9.406;2023-06-26T05:13:25;16.20;99.60
13344;DHT22;6741;48.964;9.406;2023-06-26T05:15:52;16.30;96.50
13344;DHT22;6741;48.964;9.406;2023-06-26T05:18:19;16.40;94.30
13344;DHT22;6741;48.964;9.406;2023-06-26T05:20:47;16.60;92.50
13344;DHT22;6741;48.964;9.406;2023-06-26T05:23:16;16.70;90.40
13344;DHT22;6741;48.964;9.406;2023-06-26T05:25:45;16.80;79.40
13344;DHT22;6741;48.964;9.406;2023-06-26T05:28:12;17.00;76.60
13344;DHT22;6741;48.964;9.406;2023-06-26T05:30:41;17.10;50.40
13344;DHT22;6741;48.964;9.406;2023-06-26T05:33:11;17.30;38.70
13344;DHT22;6741;48.964;9.406;2023-06-26T05:35:39;17.40;38.50
13344;DHT22;6741;48.964;9.406;2023-06-26T05:38:06;17.60;33.80
13344;DHT22;6741;48.964;9.406;2023-06-26T05:40:33;17.70;21.30
13344;DHT22;6741;48.964;9.406;2023-06-26T05:43:03;17.90;19.80
13344;DHT22;6741;48.964;9.406;2023-06-26T05:45:30;18.10;5.10
13344;DHT22;6741;48.964;9.406;2023-06-26T05:47:57;18.30;1.00
13344;DHT22;6741;48.964;9.406;2023-06-26T05:50:24;18.40;1.00
13344;DHT22;6741;48.964;9.406;2023-06-26T05:52:52;18.60;1.00
13344;DHT22;6741;48.964;9.406;2023-06-26T05:55:20;18.70;1.00
13344;DHT22;6741;48.964;9.406;2023-06-26T05:57:48;18.90;1.00
13344;DHT22;6741;48.964;9.406;2023-06-26T06:00:18;19.00;1.00
13344;DHT22;6741;48.964;9.406;2023-06-26T06:02:46;19.10;1.00
13344;DHT22;6741;48.964;9.406;2023-06-26T06:05:13;19.30;1.00
13344;DHT22;6741;48.964;9.406;2023-06-26T06:07:40;19.50;1.00
13344;DHT22;6741;48.964;9.406;2023-06-26T06:10:07;19.70;1.00
13344;DHT22;6741;48.964;9.406;2023-06-26T06:12:34;19.90;1.00
13344;DHT22;6741;48.964;9.406;2023-06-26T06:15:01;20.10;1.00
13344;DHT22;6741;48.964;9.406;2023-06-26T06:17:29;20.20;1.00
13344;DHT22;6741;48.964;9.406;2023-06-26T06:19:56;20.40;15.80
13344;DHT22;6741;48.964;9.406;2023-06-26T06:22:23;20.60;1.00
13344;DHT22;6741;48.964;9.406;2023-06-26T06:24:50;20.80;43.10
13344;DHT22;6741;48.964;9.406;2023-06-26T06:27:17;21.00;7.50
13344;DHT22;6741;48.964;9.406;2023-06-26T06:29:44;21.10;1.00
13344;DHT22;6741;48.964;9.406;2023-06-26T06:32:11;21.30;99.90
13344;DHT22;6741;48.964;9.406;2023-06-26T06:34:40;21.40;99.90
13344;DHT22;6741;48.964;9.406;2023-06-26T06:37:06;21.60;1.00
13344;DHT22;6741;48.964;9.406;2023-06-26T06:39:33;21.70;1.00
13344;DHT22;6741;48.964;9.406;2023-06-26T06:42:00;22.00;99.90
13344;DHT22;6741;48.964;9.406;2023-06-26T06:44:27;22.20;99.90
13344;DHT22;6741;48.964;9.406;2023-06-26T06:46:56;22.40;1.00
13344;DHT22;6741;48.964;9.406;2023-06-26T06:49:22;22.60;1.00
13344;DHT22;6741;48.964;9.406;2023-06-26T06:51:51;22.70;1.00
13344;DHT22;6741;48.964;9.406;2023-06-26T06:54:18;22.90;1.00
13344;DHT22;6741;48.964;9.406;2023-06-26T06:56:45;23.00;99.90
13344;DHT22;6741;48.964;9.406;2023-06-26T06:59:12;23.20;1.00
13344;DHT22;6741;48.964;9.406;2023-06-26T07:01:39;23.30;1.00
13344;DHT22;6741;48.964;9.406;2023-06-26T07:04:06;23.40;39.70
13344;DHT22;6741;48.964;9.406;2023-06-26T07:06:33;23.60;99.90
13344;DHT22;6741;48.964;9.406;2023-06-26T07:09:01;23.80;99.90
13344;DHT22;6741;48.964;9.406;2023-06-26T07:11:29;23.90;99.90
13344;DHT22;6741;48.964;9.406;2023-06-26T07:13:55;24.00;99.90
13344;DHT22;6741;48.964;9.406;2023-06-26T07:16:22;24.10;99.90
13344;DHT22;6741;48.964;9.406;2023-06-26T07:18:49;24.20;99.90
13344;DHT22;6741;48.964;9.406;2023-06-26T07:21:17;24.40;99.90
13344;DHT22;6741;48.964;9.406;2023-06-26T07:23:44;24.50;99.90
13344;DHT22;6741;48.964;9.406;2023-06-26T07:26:14;24.70;90.60
13344;DHT22;6741;48.964;9.406;2023-06-26T07:28:41;24.90;1.00
13344;DHT22;6741;48.964;9.406;2023-06-26T07:31:08;25.00;99.90
13344;DHT22;6741;48.964;9.406;2023-06-26T07:33:36;25.00;1.00
13344;DHT22;6741;48.964;9.406;2023-06-26T07:36:03;25.10;1.00
13344;DHT22;6741;48.964;9.406;2023-06-26T07:38:30;25.10;1.00
13344;DHT22;6741;48.964;9.406;2023-06-26T07:40:58;25.10;1.00
13344;DHT22;6741;48.964;9.406;2023-06-26T07:43:26;25.20;1.00
13344;DHT22;6741;48.964;9.406;2023-06-26T07:45:53;25.20;1.00
13344;DHT22;6741;48.964;9.406;2023-06-26T07:48:21;25.40;1.00
13344;DHT22;6741;48.964;9.406;2023-06-26T07:50:48;25.50;1.00
13344;DHT22;6741;48.964;9.406;2023-06-26T07:53:15;25.60;1.00
13344;DHT22;6741;48.964;9.406;2023-06-26T07:55:42;25.70;1.00
13344;DHT22;6741;48.964;9.406;2023-06-26T07:58:09;25.50;1.00
13344;DHT22;6741;48.964;9.406;2023-06-26T08:00:37;25.60;1.00
13344;DHT22;6741;48.964;9.406;2023-06-26T08:03:04;25.80;1.00
13344;DHT22;6741;48.964;9.406;2023-06-26T08:05:31;25.90;1.00
13344;DHT22;6741;48.964;9.406;2023-06-26T08:07:58;26.00;1.00
13344;DHT22;6741;48.964;9.406;2023-06-26T08:10:27;26.00;1.00
13344;DHT22;6741;48.964;9.406;2023-06-26T08:12:54;26.30;1.00
13344;DHT22;6741;48.964;9.406;2023-06-26T08:15:21;26.40;1.00
13344;DHT22;6741;48.964;9.406;2023-06-26T08:17:49;26.70;1.00
13344;DHT22;6741;48.964;9.406;2023-06-26T08:20:17;26.80;1.00
13344;DHT22;6741;48.964;9.406;2023-06-26T08:22:45;26.90;1.00
13344;DHT22;6741;48.964;9.406;2023-06-26T08:25:13;26.80;99.90
13344;DHT22;6741;48.964;9.406;2023-06-26T08:27:40;26.90;82.50
13344;DHT22;6741;48.964;9.406;2023-06-26T08:30:07;26.90;8.60
13344;DHT22;6741;48.964;9.406;2023-06-26T08:32:34;27.10;99.90
13344;DHT22;6741;48.964;9.406;2023-06-26T08:35:03;27.10;1.00
13344;DHT22;6741;48.964;9.406;2023-06-26T08:37:31;27.10;1.00
13344;DHT22;6741;48.964;9.406;2023-06-26T08:39:59;27.00;1.00
13344;DHT22;6741;48.964;9.406;2023-06-26T08:42:26;27.00;1.00
13344;DHT22;6741;48.964;9.406;2023-06-26T08:44:52;27.20;1.00
13344;DHT22;6741;48.964;9.406;2023-06-26T08:47:19;27.60;1.00
13344;DHT22;6741;48.964;9.406;2023-06-26T08:49:50;27.70;1.00
13344;DHT22;6741;48.964;9.406;2023-06-26T08:52:23;27.60;1.00
13344;DHT22;6741;48.964;9.406;2023-06-26T08:54:54;27.70;1.00
13344;DHT22;6741;48.964;9.406;2023-06-26T08:57:23;27.80;1.00
13344;DHT22;6741;48.964;9.406;2023-06-26T08:59:52;27.80;1.00
13344;DHT22;6741;48.964;9.406;2023-06-26T09:02:19;27.90;1.00
13344;DHT22;6741;48.964;9.406;2023-06-26T09:04:47;28.00;1.00
13344;DHT22;6741;48.964;9.406;2023-06-26T09:07:15;28.10;1.00
13344;DHT22;6741;48.964;9.406;2023-06-26T09:09:43;28.20;1.00
13344;DHT22;6741;48.964;9.406;2023-06-26T09:12:10;28.20;1.00
13344;DHT22;6741;48.964;9.406;2023-06-26T09:14:37;28.60;1.00
13344;DHT22;6741;48.964;9.406;2023-06-26T09:17:04;28.30;1.00
13344;DHT22;6741;48.964;9.406;2023-06-26T09:19:31;28.50;1.00
13344;DHT22;6741;48.964;9.406;2023-06-26T09:21:58;28.20;1.00
13344;DHT22;6741;48.964;9.406;2023-06-26T09:24:26;28.30;1.00
13344;DHT22;6741;48.964;9.406;2023-06-26T09:26:54;28.60;1.00
13344;DHT22;6741;48.964;9.406;2023-06-26T09:29:21;29.10;1.00
13344;DHT22;6741;48.964;9.406;2023-06-26T09:31:51;29.20;1.00
13344;DHT22;6741;48.964;9.406;2023-06-26T09:34:18;29.30;1.00
13344;DHT22;6741;48.964;9.406;2023-06-26T09:36:46;29.50;1.00
13344;DHT22;6741;48.964;9.406;2023-06-26T09:39:14;29.40;1.00
13344;DHT22;6741;48.964;9.406;2023-06-26T09:41:42;29.60;1.00
13344;DHT22;6741;48.964;9.406;2023-06-26T09:44:11;29.90;1.00
13344;DHT22;6741;48.964;9.406;2023-06-26T09:46:39;29.70;1.00
13344;DHT22;6741;48.964;9.406;2023-06-26T09:49:09;29.80;29.80
13344;DHT22;6741;48.964;9.406;2023-06-26T09:51:38;30.20;20.80
13344;DHT22;6741;48.964;9.406;2023-06-26T09:54:05;30.00;97.60
13344;DHT22;6741;48.964;9.406;2023-06-26T09:56:33;29.90;1.00
13344;DHT22;6741;48.964;9.406;2023-06-26T09:59:01;30.10;53.30
13344;DHT22;6741;48.964;9.406;2023-06-26T10:01:31;29.50;1.00
13344;DHT22;6741;48.964;9.406;2023-06-26T10:03:58;29.70;23.90
13344;DHT22;6741;48.964;9.406;2023-06-26T10:06:27;30.20;99.90
13344;DHT22;6741;48.964;9.406;2023-06-26T10:08:56;29.90;34.30
13344;DHT22;6741;48.964;9.406;2023-06-26T10:11:25;30.30;1.00
13344;DHT22;6741;48.964;9.406;2023-06-26T10:13:55;30.40;99.90
13344;DHT22;6741;48.964;9.406;2023-06-26T10:16:26;30.60;99.90
13344;DHT22;6741;48.964;9.406;2023-06-26T10:18:58;30.50;99.90
13344;DHT22;6741;48.964;9.406;2023-06-26T10:21:29;30.30;99.90
13344;DHT22;6741;48.964;9.406;2023-06-26T10:23:58;30.70;99.90
13344;DHT22;6741;48.964;9.406;2023-06-26T10:26:26;30.50;99.90
13344;DHT22;6741;48.964;9.406;2023-06-26T10:28:56;29.90;99.90
13344;DHT22;6741;48.964;9.406;2023-06-26T10:31:26;30.10;99.90
13344;DHT22;6741;48.964;9.406;2023-06-26T10:33:56;30.10;99.90
13344;DHT22;6741;48.964;9.406;2023-06-26T10:36:28;30.40;99.90
13344;DHT22;6741;48.964;9.406;2023-06-26T10:38:57;30.40;99.90
13344;DHT22;6741;48.964;9.406;2023-06-26T10:41:25;31.10;99.90
13344;DHT22;6741;48.964;9.406;2023-06-26T10:44:06;31.00;99.90
13344;DHT22;6741;48.964;9.406;2023-06-26T10:46:33;30.20;99.90
13344;DHT22;6741;48.964;9.406;2023-06-26T10:49:02;30.30;99.90
13344;DHT22;6741;48.964;9.406;2023-06-26T10:51:29;30.10;99.90
13344;DHT22;6741;48.964;9.406;2023-06-26T10:53:56;29.90;99.90
13344;DHT22;6741;48.964;9.406;2023-06-26T10:56:41;30.60;99.90
13344;DHT22;6741;48.964;9.406;2023-06-26T10:59:15;30.50;99.90
13344;DHT22;6741;48.964;9.406;2023-06-26T11:01:43;30.20;99.90
13344;DHT22;6741;48.964;9.406;2023-06-26T11:04:13;29.90;99.90
13344;DHT22;6741;48.964;9.406;2023-06-26T11:06:45;30.30;1.00
13344;DHT22;6741;48.964;9.406;2023-06-26T11:09:15;30.20;1.00
13344;DHT22;6741;48.964;9.406;2023-06-26T11:11:58;30.90;99.90
13344;DHT22;6741;48.964;9.406;2023-06-26T11:14:28;31.00;1.00
13344;DHT22;6741;48.964;9.406;2023-06-26T11:16:58;30.00;1.00
13344;DHT22;6741;48.964;9.406;2023-06-26T11:19:27;29.80;99.90
13344;DHT22;6741;48.964;9.406;2023-06-26T11:22:04;30.60;99.90
13344;DHT22;6741;48.964;9.406;2023-06-26T11:24:32;30.80;99.90
13344;DHT22;6741;48.964;9.406;2023-06-26T11:27:04;30.60;1.00
13344;DHT22;6741;48.964;9.406;2023-06-26T11:29:32;30.10;99.90
13344;DHT22;6741;48.964;9.406;2023-06-26T11:32:01;29.90;99.90
13344;DHT22;6741;48.964;9.406;2023-06-26T11:34:33;30.70;99.90
13344;DHT22;6741;48.964;9.406;2023-06-26T11:37:00;30.60;99.90
13344;DHT22;6741;48.964;9.406;2023-06-26T11:39:28;30.20;1.00
13344;DHT22;6741;48.964;9.406;2023-06-26T11:41:55;30.00;99.90
13344;DHT22;6741;48.964;9.406;2023-06-26T11:44:23;30.40;99.90
13344;DHT22;6741;48.964;9.406;2023-06-26T11:46:52;30.40;99.90
13344;DHT22;6741;48.964;9.406;2023-06-26T11:49:21;30.50;99.90
13344;DHT22;6741;48.964;9.406;2023-06-26T11:51:52;30.20;99.90
13344;DHT22;6741;48.964;9.406;2023-06-26T11:54:25;30.40;99.90
13344;DHT22;6741;48.964;9.406;2023-06-26T11:56:56;30.50;99.90
13344;DHT22;6741;48.964;9.406;2023-06-26T11:59:26;32.00;99.90
13344;DHT22;6741;48.964;9.406;2023-06-26T12:01:58;31.90;99.90
13344;DHT22;6741;48.964;9.406;2023-06-26T12:04:25;31.40;99.90
13344;DHT22;6741;48.964;9.406;2023-06-26T12:06:54;31.20;99.90
13344;DHT22;6741;48.964;9.406;2023-06-26T12:09:23;31.10;99.90
13344;DHT22;6741;48.964;9.406;2023-06-26T12:11:53;31.70;1.00
13344;DHT22;6741;48.964;9.406;2023-06-26T12:14:22;32.10;99.90
13344;DHT22;6741;48.964;9.406;2023-06-26T12:16:49;32.30;1.00
13344;DHT22;6741;48.964;9.406;2023-06-26T12:19:16;31.80;99.90
13344;DHT22;6741;48.964;9.406;2023-06-26T12:21:47;30.70;99.90
13344;DHT22;6741;48.964;9.406;2023-06-26T12:24:20;31.50;1.00
13344;DHT22;6741;48.964;9.406;2023-06-26T12:26:50;32.30;1.00
13344;DHT22;6741;48.964;9.406;2023-06-26T12:29:19;33.10;1.00
13344;DHT22;6741;48.964;9.406;2023-06-26T12:31:51;31.80;99.90
13344;DHT22;6741;48.964;9.406;2023-06-26T12:34:19;32.30;99.90
13344;DHT22;6741;48.964;9.406;2023-06-26T12:36:48;31.50;99.90
13344;DHT22;6741;48.964;9.406;2023-06-26T12:39:16;30.60;99.90
13344;DHT22;6741;48.964;9.406;2023-06-26T12:41:46;30.90;99.90
13344;DHT22;6741;48.964;9.406;2023-06-26T12:44:19;30.80;99.90
13344;DHT22;6741;48.964;9.406;2023-06-26T12:46:48;30.50;99.90
13344;DHT22;6741;48.964;9.406;2023-06-26T12:49:16;31.40;99.90
13344;DHT22;6741;48.964;9.406;2023-06-26T12:51:45;32.40;99.90
13344;DHT22;6741;48.964;9.406;2023-06-26T12:54:12;31.60;99.90
13344;DHT22;6741;48.964;9.406;2023-06-26T12:56:39;31.80;99.90
13344;DHT22;6741;48.964;9.406;2023-06-26T12:59:07;31.70;99.90
13344;DHT22;6741;48.964;9.406;2023-06-26T13:01:34;31.30;99.90
13344;DHT22;6741;48.964;9.406;2023-06-26T13:04:02;31.10;99.90
13344;DHT22;6741;48.964;9.406;2023-06-26T13:06:29;31.10;1.00
13344;DHT22;6741;48.964;9.406;2023-06-26T13:08:57;31.60;1.00
13344;DHT22;6741;48.964;9.406;2023-06-26T13:11:24;31.50;99.90
13344;DHT22;6741;48.964;9.406;2023-06-26T13:13:51;30.80;99.90
13344;DHT22;6741;48.964;9.406;2023-06-26T13:16:19;30.40;1.00
13344;DHT22;6741;48.964;9.406;2023-06-26T13:18:46;30.00;99.90
13344;DHT22;6741;48.964;9.406;2023-06-26T13:21:13;30.50;1.00
13344;DHT22;6741;48.964;9.406;2023-06-26T13:23:40;30.40;1.00
13344;DHT22;6741;48.964;9.406;2023-06-26T13:26:07;30.60;1.00
13344;DHT22;6741;48.964;9.406;2023-06-26T13:28:35;30.20;1.00
13344;DHT22;6741;48.964;9.406;2023-06-26T13:31:02;31.00;99.90
13344;DHT22;6741;48.964;9.406;2023-06-26T13:33:30;31.50;99.90
13344;DHT22;6741;48.964;9.406;2023-06-26T13:35:57;31.10;99.90
13344;DHT22;6741;48.964;9.406;2023-06-26T13:38:25;31.00;1.00
13344;DHT22;6741;48.964;9.406;2023-06-26T13:40:52;30.40;1.00
13344;DHT22;6741;48.964;9.406;2023-06-26T13:43:21;30.10;99.90
13344;DHT22;6741;48.964;9.406;2023-06-26T13:45:50;30.50;1.00
13344;DHT22;6741;48.964;9.406;2023-06-26T13:48:17;30.00;1.00
13344;DHT22;6741;48.964;9.406;2023-06-26T13:50:45;30.50;1.00
13344;DHT22;6741;48.964;9.406;2023-06-26T13:53:13;30.00;1.00
13344;DHT22;6741;48.964;9.406;2023-06-26T13:55:40;30.10;1.00
13344;DHT22;6741;48.964;9.406;2023-06-26T13:58:08;30.80;1.00
13344;DHT22;6741;48.964;9.406;2023-06-26T14:00:35;31.00;1.00
13344;DHT22;6741;48.964;9.406;2023-06-26T14:03:03;30.80;1.00
13344;DHT22;6741;48.964;9.406;2023-06-26T14:05:32;30.60;1.00
13344;DHT22;6741;48.964;9.406;2023-06-26T14:08:02;30.70;1.00
13344;DHT22;6741;48.964;9.406;2023-06-26T14:10:29;30.50;1.00
13344;DHT22;6741;48.964;9.406;2023-06-26T14:12:56;30.50;1.00
13344;DHT22;6741;48.964;9.406;2023-06-26T14:15:23;30.70;99.90
13344;DHT22;6741;48.964;9.406;2023-06-26T14:17:50;30.80;99.90
13344;DHT22;6741;48.964;9.406;2023-06-26T14:20:18;30.70;99.90
13344;DHT22;6741;48.964;9.406;2023-06-26T14:22:46;31.10;1.00
13344;DHT22;6741;48.964;9.406;2023-06-26T14:25:15;30.40;1.00
13344;DHT22;6741;48.964;9.406;2023-06-26T14:27:42;30.90;99.90
13344;DHT22;6741;48.964;9.406;2023-06-26T14:30:10;31.30;99.90
13344;DHT22;6741;48.964;9.406;2023-06-26T14:32:37;30.80;99.90
13344;DHT22;6741;48.964;9.406;2023-06-26T14:35:04;30.50;68.00
13344;DHT22;6741;48.964;9.406;2023-06-26T14:37:31;31.00;99.90
13344;DHT22;6741;48.964;9.406;2023-06-26T14:39:58;30.50;1.00
13344;DHT22;6741;48.964;9.406;2023-06-26T14:42:26;31.10;99.90
13344;DHT22;6741;48.964;9.406;2023-06-26T14:44:53;31.30;11.40
13344;DHT22;6741;48.964;9.406;2023-06-26T14:47:20;30.50;1.00
13344;DHT22;6741;48.964;9.406;2023-06-26T14:49:47;30.20;1.00
13344;DHT22;6741;48.964;9.406;2023-06-26T14:52:14;30.40;25.70
13344;DHT22;6741;48.964;9.406;2023-06-26T14:54:41;31.20;99.90
13344;DHT22;6741;48.964;9.406;2023-06-26T14:57:08;30.80;99.90
13344;DHT22;6741;48.964;9.406;2023-06-26T14:59:36;31.40;86.10
13344;DHT22;6741;48.964;9.406;2023-06-26T15:02:03;31.50;99.90
13344;DHT22;6741;48.964;9.406;2023-06-26T15:04:31;31.50;99.90
13344;DHT22;6741;48.964;9.406;2023-06-26T15:06:58;31.20;54.10
13344;DHT22;6741;48.964;9.406;2023-06-26T15:09:25;30.40;99.90
13344;DHT22;6741;48.964;9.406;2023-06-26T15:11:52;29.90;99.90
13344;DHT22;6741;48.964;9.406;2023-06-26T15:14:18;29.60;99.90
13344;DHT22;6741;48.964;9.406;2023-06-26T15:16:47;30.00;1.00
13344;DHT22;6741;48.964;9.406;2023-06-26T15:19:13;30.00;1.00
13344;DHT22;6741;48.964;9.406;2023-06-26T15:21:40;30.30;99.90
13344;DHT22;6741;48.964;9.406;2023-06-26T15:24:07;30.50;99.90
13344;DHT22;6741;48.964;9.406;2023-06-26T15:26:34;29.60;99.90
13344;DHT22;6741;48.964;9.406;2023-06-26T15:29:02;28.90;1.00
13344;DHT22;6741;48.964;9.406;2023-06-26T15:31:29;28.80;1.00
13344;DHT22;6741;48.964;9.406;2023-06-26T15:33:58;29.10;99.90
13344;DHT22;6741;48.964;9.406;2023-06-26T15:36:25;29.30;99.90
13344;DHT22;6741;48.964;9.406;2023-06-26T15:38:52;28.90;99.90
13344;DHT22;6741;48.964;9.406;2023-06-26T15:41:19;29.10;1.00
13344;DHT22;6741;48.964;9.406;2023-06-26T15:43:46;28.90;37.60
13344;DHT22;6741;48.964;9.406;2023-06-26T15:46:13;28.10;1.00
13344;DHT22;6741;48.964;9.406;2023-06-26T15:48:40;28.00;99.90
13344;DHT22;6741;48.964;9.406;2023-06-26T15:51:08;28.20;99.90
13344;DHT22;6741;48.964;9.406;2023-06-26T15:53:36;28.50;99.90
13344;DHT22;6741;48.964;9.406;2023-06-26T15:56:06;28.40;1.00